Time;durP1;ratioP1;P1;durP2;ratioP2;P2;SDS_P1;SDS_P2;PMS_P1;PMS_P2;Temp;Humidity;BMP_temperature;BMP_pressure;BME280_temperature;BME280_humidity;BME280_pressure;Samples;Min_cycle;Max_cycle;Signal;HPM_P1;HPM_P2
2022/05/30 00:00:32;;;;;;;;;;;;;;;-144.99;86.01;52480.72;4967445;28;19967;-75
2022/05/30 00:02:58;;;;;;;;;;;;;;;-144.99;86.33;52444.03;4963647;28;19980;-75
2022/05/30 00:05:25;;;;;;;;;;;;;;;-144.99;86.47;52476.63;4962268;29;19985;-76
2022/05/30 00:07:53;;;;;;;;;;;;;;;-144.99;86.38;52448.09;4969664;29;19991;-75
2022/05/30 00:10:19;;;;;;;;;;;;;;;-144.99;86.38;52460.31;4962555;29;19984;-76
2022/05/30 00:12:46;;;;;;;;;;;;;;;-144.99;86.30;52464.41;4967094;28;19976;-74
2022/05/30 00:15:15;;;;;;;;;;;;;;;-144.99;86.85;52446.06;4951465;29;20031;-74
2022/05/30 00:17:41;;;;;;;;;;;;;;;-144.99;87.05;52427.72;4952127;29;19988;-75
2022/05/30 00:20:08;;;;;;;;;;;;;;;-144.99;87.04;52446.06;4952219;29;20137;-74
2022/05/30 00:22:34;;;;;;;;;;;;;;;-144.99;86.83;52423.63;4957137;28;20467;-75
2022/05/30 00:25:02;;;;;;;;;;;;;;;-144.99;87.02;52439.94;4962021;28;20319;-73
2022/05/30 00:27:29;;;;;;;;;;;;;;;-144.99;87.25;52448.09;4965371;28;19998;-74
2022/05/30 00:29:55;;;;;;;;;;;;;;;-144.99;87.52;52472.56;4955793;29;19997;-73
2022/05/30 00:32:21;;;;;;;;;;;;;;;-144.99;87.46;52460.31;4942033;29;20456;-73
2022/05/30 00:34:47;;;;;;;;;;;;;;;-144.99;87.84;52444.03;4951306;28;19985;-74
2022/05/30 00:37:14;;;;;;;;;;;;;;;-144.99;87.72;52439.94;4945783;28;19990;-73
2022/05/30 00:39:40;;;;;;;;;;;;;;;-144.99;87.76;52435.88;4943537;29;19973;-74
2022/05/30 00:42:09;;;;;;;;;;;;;;;-144.99;87.79;52452.16;4947107;29;19992;-73
2022/05/30 00:44:36;;;;;;;;;;;;;;;-144.99;87.93;52464.41;4945779;28;20262;-74
2022/05/30 00:47:02;;;;;;;;;;;;;;;-144.99;87.96;52460.31;4942586;28;19993;-74
2022/05/30 00:49:28;;;;;;;;;;;;;;;-144.99;87.88;52462.34;4942426;29;20253;-74
2022/05/30 00:51:56;;;;;;;;;;;;;;;-144.99;87.99;52448.09;4942154;29;19982;-74
2022/05/30 00:54:31;;;;;;;;;;;;;;;-144.99;87.93;52456.25;4946230;28;20453;-74
2022/05/30 00:56:58;;;;;;;;;;;;;;;-144.99;88.19;52460.31;4943804;28;19993;-74
2022/05/30 00:59:26;;;;;;;;;;;;;;;-144.99;87.98;52435.88;4945240;28;19983;-73
2022/05/30 01:01:52;;;;;;;;;;;;;;;-144.99;87.89;52419.56;4941194;29;20264;-73
2022/05/30 01:07:04;;;;;;;;;;;;;;;-144.99;87.80;52444.03;4944104;29;20003;-72
2022/05/30 01:09:32;;;;;;;;;;;;;;;-144.99;88.22;52452.16;4943871;29;20032;-72
2022/05/30 01:12:00;;;;;;;;;;;;;;;-144.99;88.56;52444.03;4946839;29;19996;-73
2022/05/30 01:14:29;;;;;;;;;;;;;;;-144.99;88.97;52423.63;4948152;28;19981;-73
2022/05/30 01:16:56;;;;;;;;;;;;;;;-144.99;89.34;52423.63;4944715;29;20000;-73
2022/05/30 01:19:47;;;;;;;;;;;;;;;-144.99;89.42;52466.44;4945342;29;19974;-73
2022/05/30 01:22:32;;;;;;;;;;;;;;;-144.99;89.59;52472.56;4945853;28;19981;-73
2022/05/30 01:25:02;;;;;;;;;;;;;;;-144.99;89.77;52448.09;4946431;29;20507;-73
2022/05/30 01:27:34;;;;;;;;;;;;;;;-144.99;89.96;52448.09;4946763;28;19997;-74
2022/05/30 01:30:03;;;;;;;;;;;;;;;-144.99;90.30;52439.94;4944610;29;20269;-73
2022/05/30 01:32:30;;;;;;;;;;;;;;;-144.99;90.33;52439.94;4944093;28;19976;-73
2022/05/30 01:34:56;;;;;;;;;;;;;;;-144.99;90.32;52492.94;4943842;28;19977;-73
2022/05/30 01:37:24;;;;;;;;;;;;;;;-144.99;90.52;52407.31;4947083;29;19991;-74
2022/05/30 01:39:50;;;;;;;;;;;;;;;-144.99;90.44;52470.50;4947896;29;20430;-73
2022/05/30 01:42:16;;;;;;;;;;;;;;;-144.99;90.48;52472.56;4944366;29;20448;-73
2022/05/30 01:44:42;;;;;;;;;;;;;;;-144.99;90.56;52464.41;4942292;28;19989;-73
2022/05/30 01:47:10;;;;;;;;;;;;;;;-144.99;90.75;52464.41;4945065;28;19989;-74
2022/05/30 01:49:37;;;;;;;;;;;;;;;-144.99;91.21;52444.03;4947316;29;20011;-74
2022/05/30 01:52:03;;;;;;;;;;;;;;;-144.99;91.13;52460.31;4946714;29;19981;-72
2022/05/30 01:54:30;;;;;;;;;;;;;;;-144.99;91.31;52456.25;4949279;28;19981;-72
2022/05/30 01:56:56;;;;;;;;;;;;;;;-144.99;91.41;52444.03;4944871;28;20305;-72
2022/05/30 01:59:22;;;;;;;;;;;;;;;-144.99;91.60;52456.25;4955169;28;20359;-71
2022/05/30 02:01:49;;;;;;;;;;;;;;;-144.99;91.69;52462.34;4945834;28;19982;-72
2022/05/30 02:04:18;;;;;;;;;;;;;;;-144.99;91.95;52427.72;4950308;29;19967;-72
2022/05/30 02:06:44;;;;;;;;;;;;;;;-144.99;92.24;52419.56;4952137;28;19988;-73
2022/05/30 02:09:11;;;;;;;;;;;;;;;-144.99;92.38;52446.06;4952374;29;20368;-73
2022/05/30 02:11:37;;;;;;;;;;;;;;;-144.99;92.51;52427.72;4949401;28;20003;-71
2022/05/30 02:14:04;;;;;;;;;;;;;;;-144.99;92.24;52480.72;4942191;28;19982;-73
2022/05/30 02:19:17;;;;;;;;;;;;;;;-144.99;92.78;52448.09;4944374;29;20545;-73
2022/05/30 02:21:43;;;;;;;;;;;;;;;-144.99;92.87;52456.25;4942097;29;19986;-73
2022/05/30 02:24:09;;;;;;;;;;;;;;;-144.99;92.86;52444.03;4945331;29;19959;-74
2022/05/30 02:26:36;;;;;;;;;;;;;;;-144.99;92.68;52452.16;4945816;29;19993;-74
2022/05/30 02:29:03;;;;;;;;;;;;;;;-144.99;92.61;52448.09;4947548;29;20016;-73
2022/05/30 02:31:30;;;;;;;;;;;;;;;-144.99;92.79;52435.88;4939884;28;19981;-73
2022/05/30 02:36:41;;;;;;;;;;;;;;;-144.99;93.02;52399.19;4946472;29;20367;-74
2022/05/30 02:39:08;;;;;;;;;;;;;;;-144.99;93.06;52476.63;4944570;29;19982;-74
2022/05/30 02:41:34;;;;;;;;;;;;;;;-144.99;92.97;52407.31;4944586;29;20433;-74
2022/05/30 02:44:00;;;;;;;;;;;;;;;-144.99;92.80;52427.72;4949255;28;20117;-73
2022/05/30 02:46:27;;;;;;;;;;;;;;;-144.99;92.71;52444.03;4943705;29;19989;-73
2022/05/30 02:48:53;;;;;;;;;;;;;;;-144.99;92.63;52474.59;4946165;29;19989;-72
2022/05/30 02:51:19;;;;;;;;;;;;;;;-144.99;92.72;52421.59;4945599;29;20166;-73
2022/05/30 02:53:47;;;;;;;;;;;;;;;-144.99;92.80;52431.78;4947750;28;19974;-72
2022/05/30 02:56:14;;;;;;;;;;;;;;;-144.99;92.81;52464.41;4945683;28;19996;-72
2022/05/30 02:58:40;;;;;;;;;;;;;;;-144.99;92.65;52484.78;4942183;28;19974;-73
2022/05/30 03:01:07;;;;;;;;;;;;;;;-144.99;92.89;52439.94;4942779;29;19996;-72
2022/05/30 03:03:33;;;;;;;;;;;;;;;-144.99;92.85;52417.53;4947322;28;19980;-71
2022/05/30 03:05:59;;;;;;;;;;;;;;;-144.99;92.26;52415.47;4947013;29;19996;-72
2022/05/30 03:08:26;;;;;;;;;;;;;;;-144.99;92.26;52464.41;4945084;29;19974;-72
2022/05/30 03:10:53;;;;;;;;;;;;;;;-144.99;91.90;52456.25;4945283;29;19963;-74
2022/05/30 03:13:19;;;;;;;;;;;;;;;-144.99;91.94;52444.03;4945963;28;19973;-75
2022/05/30 03:15:46;;;;;;;;;;;;;;;-144.99;91.89;52497.00;4943748;29;19989;-73
2022/05/30 03:18:12;;;;;;;;;;;;;;;-144.99;91.51;52468.47;4946574;29;19974;-72
2022/05/30 03:20:39;;;;;;;;;;;;;;;-144.99;91.42;52452.16;4943280;29;19980;-73
2022/05/30 03:23:05;;;;;;;;;;;;;;;-144.99;91.09;52460.31;4945932;28;20261;-73
2022/05/30 03:25:31;;;;;;;;;;;;;;;-144.99;90.86;52499.06;4945276;28;19974;-73
2022/05/30 03:27:59;;;;;;;;;;;;;;;-144.99;90.74;52460.31;4987735;23;20002;-76
2022/05/30 03:30:26;;;;;;;;;;;;;;;-144.99;90.91;52431.78;4964644;28;19996;-75
2022/05/30 03:32:52;;;;;;;;;;;;;;;-144.99;91.13;52448.09;4963046;28;19976;-76
2022/05/30 03:35:19;;;;;;;;;;;;;;;-144.99;91.10;52431.78;4964867;28;20014;-75
2022/05/30 03:37:45;;;;;;;;;;;;;;;-144.99;90.81;52452.16;4980148;28;19993;-75
2022/05/30 03:40:13;;;;;;;;;;;;;;;-144.99;90.41;52435.88;4968168;28;20032;-72
2022/05/30 03:42:39;;;;;;;;;;;;;;;-144.99;90.48;52425.66;4965815;28;20360;-73
2022/05/30 03:45:09;;;;;;;;;;;;;;;-144.99;90.44;52456.25;4959167;28;19981;-74
2022/05/30 03:47:36;;;;;;;;;;;;;;;-144.99;90.94;52413.44;4962442;28;20001;-74
2022/05/30 03:50:02;;;;;;;;;;;;;;;-144.99;90.72;52425.66;4965121;28;20004;-75
2022/05/30 03:52:28;;;;;;;;;;;;;;;-144.99;91.02;52423.63;4959833;28;19972;-75
2022/05/30 03:54:55;;;;;;;;;;;;;;;-144.99;90.82;52431.78;4963587;28;19980;-76
2022/05/30 03:57:21;;;;;;;;;;;;;;;-144.99;90.62;52444.03;4962974;28;20342;-77
2022/05/30 03:59:47;;;;;;;;;;;;;;;-144.99;90.36;52439.94;4968512;28;20421;-78
2022/05/30 04:02:15;;;;;;;;;;;;;;;-144.99;90.32;52431.78;4961980;28;19972;-75
2022/05/30 04:04:42;;;;;;;;;;;;;;;-144.99;90.20;52460.31;4961280;28;20479;-78
2022/05/30 04:07:08;;;;;;;;;;;;;;;-144.99;90.14;52456.25;4956625;28;19980;-78
2022/05/30 04:09:34;;;;;;;;;;;;;;;-144.99;90.19;52423.63;4964178;28;20084;-78
2022/05/30 04:12:01;;;;;;;;;;;;;;;-144.99;90.45;52484.78;4960407;28;19980;-74
2022/05/30 04:14:27;;;;;;;;;;;;;;;-144.99;91.25;52452.16;4965890;28;19996;-77
2022/05/30 04:16:53;;;;;;;;;;;;;;;-144.99;91.98;52433.81;4960216;28;19987;-73
2022/05/30 04:19:21;;;;;;;;;;;;;;;-144.99;92.37;52503.13;4970006;28;19969;-75
2022/05/30 04:21:47;;;;;;;;;;;;;;;-144.99;93.29;52419.56;4968942;28;21239;-75
2022/05/30 04:24:14;;;;;;;;;;;;;;;-144.99;94.03;52415.47;4961770;28;19981;-74
2022/05/30 04:26:40;;;;;;;;;;;;;;;-144.99;95.56;52448.09;4964476;28;19974;-75
2022/05/30 04:29:08;;;;;;;;;;;;;;;-144.99;96.05;52431.78;4963734;28;20000;-76
2022/05/30 04:31:34;;;;;;;;;;;;;;;-144.99;97.14;52464.41;4959235;28;19995;-75
2022/05/30 04:34:01;;;;;;;;;;;;;;;-144.99;97.42;52452.16;4963266;28;19996;-75
2022/05/30 04:36:29;;;;;;;;;;;;;;;-144.99;97.68;52480.72;4964510;28;19984;-74
2022/05/30 04:38:59;;;;;;;;;;;;;;;-144.99;97.92;52482.75;4962361;28;19999;-75
2022/05/30 04:41:25;;;;;;;;;;;;;;;-144.99;98.42;52407.31;4961123;28;20089;-77
2022/05/30 04:43:51;;;;;;;;;;;;;;;-144.99;99.03;52388.97;4961941;28;19978;-73
2022/05/30 04:46:19;;;;;;;;;;;;;;;-144.99;100.00;52427.72;4963651;28;19977;-73
2022/05/30 04:48:46;;;;;;;;;;;;;;;-144.99;100.00;52431.78;4965645;28;19999;-75
2022/05/30 04:51:12;;;;;;;;;;;;;;;-144.99;100.00;52415.47;4966065;28;19995;-71
2022/05/30 04:53:41;;;;;;;;;;;;;;;-144.99;100.00;52464.41;4275898;28;10000638;-74
2022/05/30 04:56:08;;;;;;;;;;;;;;;-144.99;100.00;52464.41;4959161;28;20049;-76
2022/05/30 04:58:36;;;;;;;;;;;;;;;-144.99;100.00;52403.25;4959466;28;20001;-75
2022/05/30 05:01:05;;;;;;;;;;;;;;;-144.99;100.00;52423.63;4959519;28;20446;-74
2022/05/30 05:03:32;;;;;;;;;;;;;;;-144.99;100.00;52484.78;4958517;28;20303;-75
2022/05/30 05:06:02;;;;;;;;;;;;;;;-144.99;100.00;52433.81;4961163;28;19983;-73
2022/05/30 05:08:32;;;;;;;;;;;;;;;-144.99;100.00;52456.25;4973443;28;20007;-77
2022/05/30 05:11:05;;;;;;;;;;;;;;;-144.99;100.00;52431.78;4971355;28;20008;-77
2022/05/30 05:13:31;;;;;;;;;;;;;;;-144.99;100.00;52444.03;4958014;28;20040;-78
2022/05/30 05:15:58;;;;;;;;;;;;;;;-144.99;100.00;52452.16;4961050;28;19977;-75
2022/05/30 05:18:24;;;;;;;;;;;;;;;-144.99;100.00;52415.47;4959624;28;19994;-74
2022/05/30 05:20:50;;;;;;;;;;;;;;;-144.99;100.00;52435.88;4945871;28;20433;-75
2022/05/30 05:23:18;;;;;;;;;;;;;;;-144.99;100.00;52423.63;4956964;28;20498;-75
2022/05/30 05:25:44;;;;;;;;;;;;;;;-144.99;100.00;52439.94;4962805;28;19974;-77
2022/05/30 05:28:12;;;;;;;;;;;;;;;-144.99;100.00;52435.88;4963485;28;19997;-76
2022/05/30 05:30:40;;;;;;;;;;;;;;;-144.99;100.00;52431.78;4957659;28;19998;-77
2022/05/30 05:33:07;;;;;;;;;;;;;;;-144.99;100.00;52435.88;4959756;28;20066;-74
2022/05/30 05:35:33;;;;;;;;;;;;;;;-144.99;100.00;52427.72;4958592;28;20428;-74
2022/05/30 05:38:00;;;;;;;;;;;;;;;-144.99;100.00;52417.53;4960910;28;20383;-76
2022/05/30 05:40:27;;;;;;;;;;;;;;;-144.99;100.00;52419.56;4960134;28;19953;-75
2022/05/30 05:42:53;;;;;;;;;;;;;;;-144.99;100.00;52439.94;4972278;28;20006;-80
2022/05/30 05:45:21;;;;;;;;;;;;;;;-144.99;100.00;52435.88;4966170;28;19985;-76
2022/05/30 05:47:48;;;;;;;;;;;;;;;-144.99;100.00;52468.47;4959063;28;20089;-75
2022/05/30 05:50:16;;;;;;;;;;;;;;;-144.99;100.00;52411.41;4961300;28;20140;-74
2022/05/30 05:52:42;;;;;;;;;;;;;;;-144.99;100.00;52386.94;4962590;28;19980;-75
2022/05/30 05:55:09;;;;;;;;;;;;;;;-144.99;100.00;52417.53;4961910;28;19982;-76
2022/05/30 05:57:35;;;;;;;;;;;;;;;-144.99;100.00;52417.53;4964418;28;19994;-73
2022/05/30 06:00:01;;;;;;;;;;;;;;;-144.99;100.00;52435.88;4960700;28;19981;-73
2022/05/30 06:02:30;;;;;;;;;;;;;;;-144.99;100.00;52407.31;4961642;28;19983;-78
2022/05/30 06:04:57;;;;;;;;;;;;;;;-144.99;100.00;52413.44;4965554;28;19983;-76
2022/05/30 06:07:23;;;;;;;;;;;;;;;-144.99;100.00;52407.31;4965100;28;20074;-75
2022/05/30 06:09:49;;;;;;;;;;;;;;;-144.99;100.00;52427.72;4960147;28;19985;-77
2022/05/30 06:12:16;;;;;;;;;;;;;;;-144.99;100.00;52399.19;4956689;28;20391;-76
2022/05/30 06:14:42;;;;;;;;;;;;;;;-144.99;100.00;52399.19;4959964;28;19979;-75
2022/05/30 06:17:09;;;;;;;;;;;;;;;-144.99;100.00;52403.25;4964019;28;20063;-76
2022/05/30 06:19:36;;;;;;;;;;;;;;;-144.99;99.23;52439.94;4963049;28;19977;-75
2022/05/30 06:22:03;;;;;;;;;;;;;;;-144.99;96.94;52407.31;4960828;28;20417;-79
2022/05/30 06:24:29;;;;;;;;;;;;;;;-144.99;95.68;52431.78;4978073;28;19990;-78
2022/05/30 06:26:56;;;;;;;;;;;;;;;-144.99;95.72;52391.03;4972674;28;19986;-76
2022/05/30 06:29:22;;;;;;;;;;;;;;;-144.99;95.52;52370.63;4959033;28;19988;-76
2022/05/30 06:31:48;;;;;;;;;;;;;;;-144.99;90.90;52411.41;4960525;28;19997;-73
2022/05/30 06:34:15;;;;;;;;;;;;;;;-144.99;91.03;52415.47;4962190;28;19987;-77
2022/05/30 06:36:42;;;;;;;;;;;;;;;-144.99;88.95;52419.56;4961689;28;19989;-75
2022/05/30 06:39:10;;;;;;;;;;;;;;;-144.99;89.29;52423.63;4962018;28;20387;-76
2022/05/30 06:41:36;;;;;;;;;;;;;;;-144.99;90.29;52417.53;4962616;28;19973;-75
2022/05/30 06:44:04;;;;;;;;;;;;;;;-144.99;91.97;52431.78;4958204;28;19980;-75
2022/05/30 06:46:32;;;;;;;;;;;;;;;-144.99;93.38;52423.63;4959371;28;19980;-73
2022/05/30 06:48:59;;;;;;;;;;;;;;;-144.99;92.70;52407.31;4964060;28;20051;-75
2022/05/30 06:51:27;;;;;;;;;;;;;;;-144.99;93.55;52382.88;4614003;28;10000111;-74
2022/05/30 06:53:55;;;;;;;;;;;;;;;-144.99;94.04;52419.56;4963335;28;20443;-75
2022/05/30 06:56:23;;;;;;;;;;;;;;;-144.99;93.52;52407.31;4960419;28;20493;-74
2022/05/30 06:58:50;;;;;;;;;;;;;;;-144.99;93.85;52382.88;4962423;28;20015;-74
2022/05/30 07:01:17;;;;;;;;;;;;;;;-144.99;93.98;52393.06;4957427;28;20016;-75
2022/05/30 07:03:45;;;;;;;;;;;;;;;-144.99;93.75;52425.66;4957998;28;19977;-76
2022/05/30 07:06:13;;;;;;;;;;;;;;;-144.99;93.45;52399.19;4972848;28;19976;-77
2022/05/30 07:08:41;;;;;;;;;;;;;;;-144.99;93.11;52395.09;4976086;28;19993;-75
2022/05/30 07:11:09;;;;;;;;;;;;;;;-144.99;92.59;52403.25;4957951;28;20508;-74
2022/05/30 07:13:35;;;;;;;;;;;;;;;-144.99;92.42;52421.59;4962315;28;19973;-74
2022/05/30 07:16:03;;;;;;;;;;;;;;;-144.99;90.77;52386.94;4962124;28;19978;-75
2022/05/30 07:18:30;;;;;;;;;;;;;;;-144.99;88.55;52399.19;4965032;28;20020;-74
2022/05/30 07:20:57;;;;;;;;;;;;;;;-144.99;89.82;52346.19;4965207;28;20258;-75
2022/05/30 07:23:23;;;;;;;;;;;;;;;-144.99;89.32;52378.78;4962998;28;20520;-75
2022/05/30 07:25:50;;;;;;;;;;;;;;;-144.99;90.11;52403.25;4962816;28;20431;-76
2022/05/30 07:28:18;;;;;;;;;;;;;;;-144.99;92.73;52403.25;4959990;28;20088;-78
2022/05/30 07:30:44;;;;;;;;;;;;;;;-144.99;93.20;52417.53;4964075;28;20278;-78
2022/05/30 07:33:11;;;;;;;;;;;;;;;-144.99;92.14;52384.91;4960553;28;19937;-83
2022/05/30 07:35:37;;;;;;;;;;;;;;;-144.99;92.47;52382.88;4966094;28;20463;-76
2022/05/30 07:38:03;;;;;;;;;;;;;;;-144.99;92.19;52419.56;4965801;28;20029;-76
2022/05/30 07:40:30;;;;;;;;;;;;;;;-144.99;92.47;52356.38;4962059;28;19988;-75
2022/05/30 07:42:57;;;;;;;;;;;;;;;-144.99;90.04;52370.63;4956946;28;20078;-80
2022/05/30 07:45:24;;;;;;;;;;;;;;;-144.99;87.73;52376.75;4964298;28;19980;-78
2022/05/30 07:47:51;;;;;;;;;;;;;;;-144.99;85.72;52362.50;4956873;28;20360;-77
2022/05/30 07:50:17;;;;;;;;;;;;;;;-144.99;78.53;52376.75;4967194;28;20834;-78
2022/05/30 07:52:44;;;;;;;;;;;;;;;-144.99;77.21;52356.38;4964410;28;20018;-75
2022/05/30 07:55:10;;;;;;;;;;;;;;;-144.99;76.45;52325.81;4961532;28;20102;-75
2022/05/30 07:57:51;;;;;;;;;;;;;;;-144.99;74.85;52366.56;4957501;28;19992;-76
2022/05/30 08:00:18;;;;;;;;;;;;;;;-144.99;74.51;52325.81;4968174;28;20000;-76
2022/05/30 08:02:46;;;;;;;;;;;;;;;-144.99;71.19;52346.19;4962288;28;19981;-74
2022/05/30 08:05:13;;;;;;;;;;;;;;;-144.99;67.74;52352.28;4965292;28;20286;-75
2022/05/30 08:07:40;;;;;;;;;;;;;;;-144.99;67.57;52329.88;4958968;28;19972;-73
2022/05/30 08:10:07;;;;;;;;;;;;;;;-144.99;67.30;52352.28;4966234;28;19980;-74
2022/05/30 08:12:34;;;;;;;;;;;;;;;-144.99;66.96;52356.38;4962048;28;19989;-76
2022/05/30 08:15:00;;;;;;;;;;;;;;;-144.99;68.32;52382.88;4959973;28;20458;-75
2022/05/30 08:17:27;;;;;;;;;;;;;;;-144.99;69.32;52366.56;4960605;28;19990;-75
2022/05/30 08:19:54;;;;;;;;;;;;;;;-144.99;70.69;52317.66;4962747;28;19978;-75
2022/05/30 08:22:22;;;;;;;;;;;;;;;-144.99;71.17;52391.03;4958418;28;19981;-76
2022/05/30 08:24:49;;;;;;;;;;;;;;;-144.99;73.47;52350.25;4961028;28;20076;-74
2022/05/30 08:27:16;;;;;;;;;;;;;;;-144.99;74.98;52374.72;4964981;28;20057;-77
2022/05/30 08:29:43;;;;;;;;;;;;;;;-144.99;75.03;52386.94;4966579;28;19976;-74
2022/05/30 08:32:09;;;;;;;;;;;;;;;-144.99;75.85;52391.03;4976381;28;20001;-74
2022/05/30 08:34:36;;;;;;;;;;;;;;;-144.99;76.06;52388.97;4967172;28;19999;-72
2022/05/30 08:37:04;;;;;;;;;;;;;;;-144.99;77.04;52423.63;4964992;28;20470;-77
2022/05/30 08:42:15;;;;;;;;;;;;;;;-144.99;75.93;52333.94;4965573;28;20358;-75
2022/05/30 08:44:41;;;;;;;;;;;;;;;-144.99;75.55;52407.31;4962437;28;19978;-75
2022/05/30 08:47:13;;;;;;;;;;;;;;;-144.99;76.24;52407.31;4960998;28;20034;-75
2022/05/30 08:49:46;;;;;;;;;;;;;;;-144.99;75.16;52386.94;4950205;28;19981;-75
2022/05/30 08:52:25;;;;;;;;;;;;;;;-144.99;75.88;52380.84;4959387;28;20004;-75
2022/05/30 08:54:58;;;;;;;;;;;;;;;-144.99;75.82;52395.09;4962384;28;19993;-75
2022/05/30 08:57:28;;;;;;;;;;;;;;;-144.99;75.65;52380.84;4962370;28;20543;-76
2022/05/30 09:00:00;;;;;;;;;;;;;;;-144.99;74.91;52391.03;4965681;28;19982;-79
2022/05/30 09:02:30;;;;;;;;;;;;;;;-144.99;74.21;52407.31;4965327;28;19985;-77
2022/05/30 09:04:59;;;;;;;;;;;;;;;-144.99;73.43;52350.25;4965405;28;20018;-77
2022/05/30 09:07:28;;;;;;;;;;;;;;;-144.99;73.65;52391.03;4967671;28;19994;-76
2022/05/30 09:09:59;;;;;;;;;;;;;;;-144.99;72.43;52382.88;4977915;28;19981;-73
2022/05/30 09:12:29;;;;;;;;;;;;;;;-144.99;68.80;52362.50;4973678;28;19994;-77
2022/05/30 09:14:57;;;;;;;;;;;;;;;-144.99;67.48;52382.88;4952969;28;20059;-75
2022/05/30 09:17:28;;;;;;;;;;;;;;;-144.99;66.02;52395.09;4966575;28;20040;-77
2022/05/30 09:19:54;;;;;;;;;;;;;;;-144.99;65.73;52391.03;4966251;28;19985;-72
2022/05/30 09:22:24;;;;;;;;;;;;;;;-144.99;65.19;52350.25;4964890;28;19934;-76
2022/05/30 09:27:32;;;;;;;;;;;;;;;-144.99;63.22;52329.88;4965439;28;20452;-74
2022/05/30 09:30:01;;;;;;;;;;;;;;;-144.99;61.24;52350.25;4984665;23;20007;-73
2022/05/30 09:32:33;;;;;;;;;;;;;;;-144.99;58.66;52344.16;4949514;28;19994;-73
2022/05/30 09:35:17;;;;;;;;;;;;;;;-144.99;58.68;52317.66;4949503;28;19989;-73
2022/05/30 09:37:45;;;;;;;;;;;;;;;-144.99;57.82;52325.81;4950960;28;19960;-73
2022/05/30 09:40:13;;;;;;;;;;;;;;;-144.99;55.68;52333.94;4966944;28;20109;-72
2022/05/30 09:42:49;;;;;;;;;;;;;;;-144.99;55.07;52354.34;4967637;28;19984;-75
2022/05/30 09:45:25;;;;;;;;;;;;;;;-144.99;54.56;52325.81;4977290;28;20399;-75
2022/05/30 09:47:58;;;;;;;;;;;;;;;-144.99;54.16;52307.47;4971268;28;20160;-73
2022/05/30 09:50:24;;;;;;;;;;;;;;;-144.99;53.79;52342.09;4979929;28;19991;-74
2022/05/30 09:52:51;;;;;;;;;;;;;;;-144.99;52.58;52321.72;4972264;28;20400;-75
2022/05/30 09:55:24;;;;;;;;;;;;;;;-144.99;51.87;52342.09;4972277;28;19977;-73
2022/05/30 09:57:52;;;;;;;;;;;;;;;-144.99;51.36;52293.19;4979014;28;19978;-75
2022/05/30 10:00:20;;;;;;;;;;;;;;;-144.99;51.32;52313.56;4967394;28;20083;-72
2022/05/30 10:02:58;;;;;;;;;;;;;;;-144.99;51.76;52344.16;4977248;28;20018;-74
2022/05/30 10:05:26;;;;;;;;;;;;;;;-144.99;51.90;52329.88;4973172;28;19977;-74
2022/05/30 10:07:54;;;;;;;;;;;;;;;-144.99;51.34;52280.97;4975433;28;20437;-77
2022/05/30 10:10:23;;;;;;;;;;;;;;;-144.99;50.79;52297.25;4968653;28;20465;-75
2022/05/30 10:12:55;;;;;;;;;;;;;;;-144.99;50.85;52297.25;4977003;28;19984;-75
2022/05/30 10:15:24;;;;;;;;;;;;;;;-144.99;51.01;52313.56;4974560;28;19971;-75
2022/05/30 10:17:50;;;;;;;;;;;;;;;-144.99;50.94;52305.41;4978994;28;19976;-75
2022/05/30 10:20:22;;;;;;;;;;;;;;;-144.99;50.43;52346.19;4976731;28;19987;-76
2022/05/30 10:28:40;;;;;;;;;;;;;;;-144.99;50.85;52329.88;4974925;28;20018;-74
2022/05/30 10:31:11;;;;;;;;;;;;;;;-144.99;50.65;52307.47;4967592;28;19993;-74
2022/05/30 10:33:58;;;;;;;;;;;;;;;-144.99;50.20;52305.41;4971934;28;19929;-74
2022/05/30 10:36:27;;;;;;;;;;;;;;;-144.99;50.30;52309.50;4972763;28;19977;-74
2022/05/30 10:39:02;;;;;;;;;;;;;;;-144.99;50.51;52319.69;4978301;28;19992;-77
2022/05/30 10:41:33;;;;;;;;;;;;;;;-144.99;48.96;52293.19;4970193;28;19952;-73
2022/05/30 10:44:03;;;;;;;;;;;;;;;-144.99;46.54;52236.13;4973651;28;20345;-75
2022/05/30 10:46:35;;;;;;;;;;;;;;;-144.99;46.90;52280.97;4972831;28;19952;-75
2022/05/30 10:49:04;;;;;;;;;;;;;;;-144.99;46.77;52305.41;4977876;28;20310;-75
2022/05/30 10:51:33;;;;;;;;;;;;;;;-144.99;47.02;52297.25;4974822;28;19983;-75
2022/05/30 10:54:02;;;;;;;;;;;;;;;-144.99;47.46;52293.19;4980656;28;19962;-75
2022/05/30 10:56:29;;;;;;;;;;;;;;;-144.99;47.44;52293.19;4973541;28;19952;-75
2022/05/30 10:58:59;;;;;;;;;;;;;;;-144.99;47.52;52285.03;4978543;28;19971;-73
2022/05/30 11:01:30;;;;;;;;;;;;;;;-144.99;47.64;52317.66;4971234;28;19956;-74
2022/05/30 11:04:06;;;;;;;;;;;;;;;-144.99;47.37;52309.50;4970184;28;19967;-74
2022/05/30 11:06:37;;;;;;;;;;;;;;;-144.99;47.50;52333.94;4973873;28;19949;-74
2022/05/30 11:09:06;;;;;;;;;;;;;;;-144.99;47.79;52317.66;4974486;28;20402;-75
2022/05/30 11:11:35;;;;;;;;;;;;;;;-144.99;46.95;52319.69;4976607;28;19971;-75
2022/05/30 11:14:10;;;;;;;;;;;;;;;-144.99;48.36;52317.66;4976012;28;19986;-73
2022/05/30 11:16:41;;;;;;;;;;;;;;;-144.99;48.51;52317.66;4971570;28;20450;-75
2022/05/30 11:19:10;;;;;;;;;;;;;;;-144.99;49.51;52289.13;4974130;28;20005;-75
2022/05/30 11:21:38;;;;;;;;;;;;;;;-144.99;48.68;52276.88;4967632;28;19978;-74
2022/05/30 11:24:06;;;;;;;;;;;;;;;-144.99;49.32;52244.28;4973514;28;19992;-75
2022/05/30 11:26:48;;;;;;;;;;;;;;;-144.99;48.52;52266.69;4971318;28;19970;-74
2022/05/30 11:29:23;;;;;;;;;;;;;;;-144.99;49.58;52285.03;4977796;28;19990;-76
2022/05/30 11:31:55;;;;;;;;;;;;;;;-144.99;47.00;52293.19;4967175;28;19978;-76
2022/05/30 11:34:33;;;;;;;;;;;;;;;-144.99;46.03;52289.13;4982792;28;19961;-74
2022/05/30 11:37:10;;;;;;;;;;;;;;;-144.99;46.53;52270.78;4980024;28;19991;-76
2022/05/30 11:39:45;;;;;;;;;;;;;;;-144.99;46.91;52283.00;4979194;28;19968;-74
2022/05/30 11:42:16;;;;;;;;;;;;;;;-144.99;47.04;52293.19;4970651;28;19965;-76
2022/05/30 11:44:46;;;;;;;;;;;;;;;-144.99;47.15;52280.97;4968130;28;19961;-74
2022/05/30 11:47:20;;;;;;;;;;;;;;;-144.99;47.44;52309.50;4977578;28;19994;-74
2022/05/30 11:49:55;;;;;;;;;;;;;;;-144.99;45.76;52285.03;4973378;28;19974;-74
2022/05/30 11:52:25;;;;;;;;;;;;;;;-144.99;45.65;52252.44;4968700;28;20485;-75
2022/05/30 11:54:58;;;;;;;;;;;;;;;-144.99;44.63;52260.56;4971147;28;20043;-76
2022/05/30 11:57:31;;;;;;;;;;;;;;;-144.99;45.01;52248.34;4978666;28;19960;-73
2022/05/30 12:00:15;;;;;;;;;;;;;;;-144.99;43.34;52258.53;4978187;28;19987;-75
2022/05/30 12:02:56;;;;;;;;;;;;;;;-144.99;43.71;52244.28;4966808;28;20077;-76
2022/05/30 12:05:37;;;;;;;;;;;;;;;-144.99;43.71;52248.34;4980439;28;20007;-78
2022/05/30 12:08:17;;;;;;;;;;;;;;;-144.99;45.08;52301.34;4977990;28;19960;-76
2022/05/30 12:10:53;;;;;;;;;;;;;;;-144.99;46.68;52301.34;4973593;28;19974;-74
2022/05/30 12:13:25;;;;;;;;;;;;;;;-144.99;47.65;52283.00;4963870;28;19987;-75
2022/05/30 12:16:11;;;;;;;;;;;;;;;-144.99;47.17;52276.88;4969480;28;20487;-75
2022/05/30 12:24:40;;;;;;;;;;;;;;;-144.99;47.84;52305.41;4970951;28;20494;-75
2022/05/30 12:27:28;;;;;;;;;;;;;;;-144.99;47.47;52352.28;4978779;28;19982;-75
2022/05/30 12:29:55;;;;;;;;;;;;;;;-144.99;47.52;52289.13;4973617;28;20156;-73
2022/05/30 12:32:36;;;;;;;;;;;;;;;-144.99;47.55;52285.03;4967912;28;20388;-73
2022/05/30 12:35:21;;;;;;;;;;;;;;;-144.99;48.16;52329.88;4975994;28;20150;-75
2022/05/30 12:37:53;;;;;;;;;;;;;;;-144.99;46.95;52378.78;4976267;28;19968;-76
2022/05/30 12:40:36;;;;;;;;;;;;;;;-144.99;47.14;52342.09;4969814;28;19987;-73
2022/05/30 12:43:06;;;;;;;;;;;;;;;-144.99;46.57;52342.09;4973138;28;20021;-76
2022/05/30 12:45:36;;;;;;;;;;;;;;;-144.99;47.71;52313.56;4969407;28;19992;-74
2022/05/30 12:48:12;;;;;;;;;;;;;;;-144.99;47.68;52317.66;4972967;28;19978;-74
2022/05/30 12:50:44;;;;;;;;;;;;;;;-144.99;47.64;52338.03;4983372;28;19993;-75
2022/05/30 12:53:12;;;;;;;;;;;;;;;-144.99;47.92;52348.22;4987975;28;20004;-74
2022/05/30 12:55:40;;;;;;;;;;;;;;;-144.99;47.48;52338.03;4983922;28;19988;-75
2022/05/30 12:58:08;;;;;;;;;;;;;;;-144.99;48.37;52321.72;4973383;28;19980;-77